createdAt,value
2019-03-10T00:02:28.691Z,101099.19
2019-03-10T00:04:58.940Z,101093.50
2019-03-10T00:07:29.389Z,101091.77
2019-03-10T00:09:59.689Z,101092.68
2019-03-10T00:12:30.163Z,101086.99
2019-03-10T00:15:00.510Z,101077.92
2019-03-10T00:17:31.020Z,101080.52
2019-03-10T00:20:01.422Z,101085.34
2019-03-10T00:22:31.684Z,101078.36
2019-03-10T00:25:01.851Z,101084.05
2019-03-10T00:27:32.235Z,101079.66
2019-03-10T00:30:02.554Z,101087.86
2019-03-10T00:32:32.790Z,101068.33
2019-03-10T00:35:03.223Z,101079.61
2019-03-10T00:37:33.561Z,101077.87
2019-03-10T00:41:11.102Z,101080.87
2019-03-10T00:44:45.107Z,101071.31
2019-03-10T00:47:59.578Z,101072.52
2019-03-10T00:51:24.702Z,101081.97
2019-03-10T00:53:54.819Z,101070.64
2019-03-10T00:56:25.040Z,101064.13
2019-03-10T00:58:55.249Z,101063.73
2019-03-10T01:01:25.473Z,101068.91
2019-03-10T01:03:55.835Z,101055.41
2019-03-10T01:06:26.181Z,101054.53
2019-03-10T01:08:56.457Z,101047.98
2019-03-10T01:11:26.771Z,101036.25
2019-03-10T01:13:57.004Z,101024.53
2019-03-10T01:16:27.489Z,101024.06
2019-03-10T01:18:58.392Z,101010.60
2019-03-10T01:21:29.019Z,101018.36
2019-03-10T01:23:59.212Z,101019.19
2019-03-10T01:26:29.434Z,101010.47
2019-03-10T01:28:59.641Z,101015.66
2019-03-10T01:32:05.468Z,101016.02
2019-03-10T01:34:56.779Z,101023.44
2019-03-10T01:37:26.898Z,101013.45
2019-03-10T01:39:57.028Z,101001.78
2019-03-10T01:42:27.214Z,100997.44
2019-03-10T01:44:57.340Z,101002.60
2019-03-10T01:47:27.427Z,101001.73
2019-03-10T01:49:57.627Z,101009.55
2019-03-10T01:52:27.894Z,101007.34
2019-03-10T01:54:58.157Z,101012.11
2019-03-10T01:57:28.339Z,100999.52
2019-03-10T01:59:58.559Z,101001.69
2019-03-10T02:02:28.781Z,100996.92
2019-03-10T02:04:58.993Z,100988.67
2019-03-10T02:07:29.128Z,100986.07
2019-03-10T02:09:59.184Z,100982.55
2019-03-10T02:12:29.414Z,100981.25
2019-03-10T02:15:03.873Z,100973.88
2019-03-10T02:17:39.696Z,100963.89
2019-03-10T02:20:13.302Z,100966.06
2019-03-10T02:22:43.388Z,100954.35
2019-03-10T02:25:13.690Z,100953.05
2019-03-10T02:27:43.817Z,100943.06
2019-03-10T02:30:19.010Z,100943.06
2019-03-10T02:32:49.201Z,100938.73
2019-03-10T02:35:19.335Z,100930.52
2019-03-10T02:37:54.187Z,100927.48
2019-03-10T02:40:24.495Z,100924.88
2019-03-10T02:42:54.713Z,100924.02
2019-03-10T02:45:26.181Z,100919.28
2019-03-10T02:47:56.315Z,100918.42
2019-03-10T02:50:28.115Z,100905.83
2019-03-10T02:52:58.363Z,100893.69
2019-03-10T02:55:28.585Z,100884.56
2019-03-10T02:57:58.735Z,100886.30
2019-03-10T03:00:28.922Z,100875.02
2019-03-10T03:02:59.061Z,100872.86
2019-03-10T03:05:29.199Z,100870.25
2019-03-10T03:07:59.403Z,100876.33
2019-03-10T03:10:29.629Z,100862.88
2019-03-10T03:12:59.831Z,100854.19
2019-03-10T03:15:29.952Z,100846.38
2019-03-10T03:18:00.070Z,100843.78
2019-03-10T03:20:30.304Z,100839.88
2019-03-10T03:23:00.531Z,100840.70
2019-03-10T03:25:30.774Z,100836.36
2019-03-10T03:28:02.376Z,100830.69
2019-03-10T03:30:33.219Z,100827.64
2019-03-10T03:33:03.538Z,100820.70
2019-03-10T03:35:55.032Z,100814.19
2019-03-10T03:38:39.364Z,100805.91
2019-03-10T03:41:13.792Z,100788.55
2019-03-10T03:43:44.236Z,100780.73
2019-03-10T03:46:14.462Z,100773.33
2019-03-10T03:48:44.663Z,100772.03
2019-03-10T03:51:14.943Z,100766.42
2019-03-10T03:53:45.078Z,100769.42
2019-03-10T03:56:15.298Z,100788.08
2019-03-10T03:58:45.540Z,100776.36
2019-03-10T04:01:19.435Z,100780.73
2019-03-10T04:03:49.841Z,100772.45
2019-03-10T04:06:20.321Z,100764.65
2019-03-10T04:08:50.772Z,100755.54
2019-03-10T04:11:21.196Z,100749.50
2019-03-10T04:13:51.395Z,100742.13
2019-03-10T04:16:21.855Z,100735.62
2019-03-10T04:18:52.340Z,100734.31
2019-03-10T04:21:22.820Z,100734.71
2019-03-10T04:23:53.189Z,100741.69
2019-03-10T04:26:23.481Z,100733.41
2019-03-10T04:28:53.701Z,100719.96
2019-03-10T04:31:24.063Z,100710.38
2019-03-10T04:33:57.045Z,100712.98
2019-03-10T04:36:27.269Z,100704.77
2019-03-10T04:39:00.587Z,100699.56
2019-03-10T04:41:30.905Z,100695.23
2019-03-10T04:44:01.121Z,100688.72
2019-03-10T04:46:31.644Z,100681.75
2019-03-10T04:49:01.754Z,100679.14
2019-03-10T04:51:31.941Z,100690.81
2019-03-10T04:54:02.012Z,100689.48
2019-03-10T04:56:42.802Z,100692.95
2019-03-10T04:59:12.931Z,100690.78
2019-03-10T05:01:43.109Z,100689.91
2019-03-10T05:04:13.311Z,100682.97
2019-03-10T05:06:43.561Z,100685.58
2019-03-10T05:09:15.502Z,100674.27
2019-03-10T05:11:46.753Z,100662.98
2019-03-10T05:14:16.816Z,100662.15
2019-03-10T05:16:46.941Z,100653.47
2019-03-10T05:19:17.049Z,100645.66
2019-03-10T05:21:47.128Z,100645.27
2019-03-10T05:24:17.402Z,100646.64
2019-03-10T05:26:47.597Z,100634.99
2019-03-10T05:29:17.665Z,100632.42
2019-03-10T05:31:47.917Z,100621.61
2019-03-10T05:34:17.971Z,100615.09
2019-03-10T05:36:48.150Z,100613.83
2019-03-10T05:39:18.265Z,100602.55
2019-03-10T05:41:48.385Z,100606.05
2019-03-10T05:44:18.526Z,100598.67
2019-03-10T05:46:48.575Z,100584.78
2019-03-10T05:49:18.619Z,100570.84
2019-03-10T05:51:48.678Z,100576.54
2019-03-10T05:54:18.823Z,100565.69
2019-03-10T05:56:48.953Z,100560.02
2019-03-10T05:59:19.045Z,100552.61
2019-03-10T06:01:49.102Z,100538.75
2019-03-10T06:04:19.241Z,100542.26
2019-03-10T06:06:49.285Z,100541.86
2019-03-10T06:09:19.400Z,100543.19
2019-03-10T06:11:49.508Z,100525.83
2019-03-10T06:14:19.654Z,100531.06
2019-03-10T06:16:49.774Z,100530.66
2019-03-10T06:19:19.801Z,100522.44
2019-03-10T06:21:49.896Z,100515.03
2019-03-10T06:24:19.976Z,100516.74
2019-03-10T06:26:50.121Z,100515.84
2019-03-10T06:29:22.483Z,100515.88
2019-03-10T06:31:52.863Z,100497.64
2019-03-10T06:34:23.359Z,100490.70
2019-03-10T06:36:53.786Z,100481.59
2019-03-10T06:39:24.215Z,100477.66
2019-03-10T06:41:54.644Z,100482.53
2019-03-10T06:44:26.991Z,100476.97
2019-03-10T06:46:57.319Z,100477.91
2019-03-10T06:49:27.771Z,100478.80
2019-03-10T06:51:58.196Z,100468.86
2019-03-10T06:54:28.606Z,100464.56
2019-03-10T06:56:59.038Z,100460.71
2019-03-10T06:59:29.464Z,100455.09
2019-03-10T07:01:59.918Z,100447.30
2019-03-10T07:04:30.396Z,100443.86
2019-03-10T07:07:00.842Z,100438.69
2019-03-10T07:09:31.392Z,100423.92
2019-03-10T07:12:01.796Z,100418.28
2019-03-10T07:14:32.214Z,100425.25
2019-03-10T07:17:02.661Z,100420.02
2019-03-10T07:19:33.080Z,100420.44
2019-03-10T07:22:03.606Z,100412.20
2019-03-10T07:24:34.033Z,100417.84
2019-03-10T07:27:04.823Z,100401.76
2019-03-10T07:29:42.936Z,100408.77
2019-03-10T07:32:19.041Z,100409.23
2019-03-10T07:35:11.431Z,100405.33
2019-03-10T07:38:15.719Z,100408.84
2019-03-10T07:41:01.361Z,100407.53
2019-03-10T07:43:49.457Z,100397.98
2019-03-10T07:46:48.013Z,100393.70
2019-03-10T07:49:27.446Z,100390.69
2019-03-10T07:52:20.604Z,100381.98
2019-03-10T07:55:25.655Z,100366.42
2019-03-10T07:58:24.586Z,100377.33
2019-03-10T08:01:19.339Z,100371.31
2019-03-10T08:04:11.764Z,100365.73
2019-03-10T08:07:04.243Z,100355.77
2019-03-10T08:09:53.701Z,100357.56
2019-03-10T08:12:41.719Z,100359.37
2019-03-10T08:15:29.654Z,100355.93
2019-03-10T08:18:17.448Z,100348.56
2019-03-10T08:20:58.084Z,100343.81
2019-03-10T08:24:32.390Z,100335.58
2019-03-10T08:27:17.523Z,100320.77
2019-03-10T08:30:04.363Z,100310.77
2019-03-10T08:32:53.407Z,100305.97
2019-03-10T08:35:52.632Z,100301.61
2019-03-10T08:38:33.730Z,100293.73
2019-03-10T08:41:21.369Z,100295.05
2019-03-10T08:43:59.053Z,100303.32
2019-03-10T08:46:41.620Z,100304.58
2019-03-10T08:49:44.460Z,100308.03
2019-03-10T08:52:14.040Z,100300.60
2019-03-10T08:54:59.776Z,100294.06
2019-03-10T08:57:47.654Z,100286.67
2019-03-10T09:00:36.797Z,100276.64
2019-03-10T09:03:17.393Z,100271.00
2019-03-10T09:06:09.567Z,100274.54
2019-03-10T09:08:49.930Z,100273.23
2019-03-10T09:14:14.182Z,100249.25
2019-03-10T09:16:59.234Z,100251.88
2019-03-10T09:19:51.475Z,100247.55
2019-03-10T09:22:34.207Z,100247.97
2019-03-10T09:25:29.348Z,100240.55
2019-03-10T09:28:21.203Z,100229.26
2019-03-10T09:31:16.236Z,100213.14
2019-03-10T09:33:56.991Z,100209.23
2019-03-10T09:36:40.068Z,100204.43
2019-03-10T09:39:38.307Z,100213.11
2019-03-10T09:42:25.798Z,100208.33
2019-03-10T09:45:10.695Z,100208.31
2019-03-10T09:48:02.970Z,100208.31
2019-03-10T09:50:56.325Z,100196.14
2019-03-10T09:53:34.600Z,100184.82
2019-03-10T09:56:26.866Z,100177.83
2019-03-10T09:59:24.119Z,100166.03
2019-03-10T10:02:25.525Z,100161.25
2019-03-10T10:05:03.379Z,100152.98
2019-03-10T10:07:45.712Z,100154.24
2019-03-10T10:10:38.001Z,100149.85
2019-03-10T10:13:21.187Z,100155.95
2019-03-10T10:16:25.642Z,100153.33
2019-03-10T10:19:20.816Z,100143.77
2019-03-10T10:22:00.795Z,100143.34
2019-03-10T10:24:36.953Z,100146.02
2019-03-10T10:27:23.232Z,100141.27
2019-03-10T10:30:18.422Z,100136.10
2019-03-10T10:33:06.905Z,100126.11
2019-03-10T10:35:47.347Z,100127.45
2019-03-10T10:38:39.465Z,100120.08
2019-03-10T10:41:27.949Z,100110.92
2019-03-10T10:44:12.392Z,100103.09
2019-03-10T10:46:49.668Z,100102.62
2019-03-10T10:49:37.913Z,100104.80
2019-03-10T10:52:20.100Z,100100.44
2019-03-10T10:55:00.835Z,100093.45
2019-03-10T10:57:42.688Z,100091.72
2019-03-10T11:00:27.789Z,100082.13
2019-03-10T11:03:23.641Z,100075.58
2019-03-10T11:06:19.949Z,100073.41
2019-03-10T11:09:04.484Z,100062.97
2019-03-10T11:11:53.548Z,100061.21
2019-03-10T11:14:48.682Z,100065.10
2019-03-10T11:17:37.826Z,100073.43
2019-03-10T11:20:33.711Z,100073.02
2019-03-10T11:23:28.766Z,100071.77
2019-03-10T11:26:30.105Z,100072.65
2019-03-10T11:29:09.448Z,100073.52
2019-03-10T11:32:01.444Z,100084.87
2019-03-10T11:34:43.000Z,100086.16
2019-03-10T11:37:29.843Z,100078.36
2019-03-10T11:40:33.975Z,100080.52
2019-03-10T11:43:09.199Z,100077.94
2019-03-10T11:45:57.867Z,100076.62
2019-03-10T11:48:52.963Z,100074.43
2019-03-10T11:51:39.816Z,100058.77
2019-03-10T11:54:17.774Z,100063.56
2019-03-10T11:57:19.121Z,100050.52
2019-03-10T12:00:11.576Z,100030.06
2019-03-10T12:03:04.027Z,100029.19
2019-03-10T12:05:56.869Z,100025.72
2019-03-10T12:08:58.106Z,100017.45
2019-03-10T12:11:28.502Z,100016.58
2019-03-10T12:13:58.596Z,100025.28
2019-03-10T12:16:31.081Z,100031.36
2019-03-10T12:19:00.957Z,100027.45
2019-03-10T12:21:31.141Z,100034.42
2019-03-10T12:24:01.477Z,100040.50
2019-03-10T12:26:36.209Z,100028.34
2019-03-10T12:29:06.965Z,100031.39
2019-03-10T12:31:37.230Z,100045.72
2019-03-10T12:34:07.596Z,100049.22
2019-03-10T12:36:37.784Z,100052.23
2019-03-10T12:39:09.596Z,100045.27
2019-03-10T12:41:39.817Z,100044.81
2019-03-10T12:45:48.088Z,100025.28
2019-03-10T12:48:19.049Z,100023.55
2019-03-10T12:50:49.180Z,100015.28
2019-03-10T12:53:19.413Z,100009.20
2019-03-10T12:55:49.585Z,100023.49
2019-03-10T12:58:19.827Z,100016.94
2019-03-10T13:00:50.070Z,100033.42
2019-03-10T13:03:20.248Z,100047.70
2019-03-10T13:05:50.446Z,100034.23
2019-03-10T13:08:20.530Z,100033.78
2019-03-10T13:11:08.888Z,100030.27
2019-03-10T13:13:39.286Z,100009.85
2019-03-10T13:16:12.248Z,100005.45
2019-03-10T13:18:41.651Z,99991.56
2019-03-10T13:21:11.959Z,99987.23
2019-03-10T13:23:42.288Z,99982.43
2019-03-10T13:26:12.403Z,99987.20
2019-03-10T13:28:42.639Z,99979.42
2019-03-10T13:31:13.022Z,99978.55
2019-03-10T13:33:43.318Z,99962.08
2019-03-10T13:36:13.581Z,99962.92
2019-03-10T13:38:43.807Z,99963.77
2019-03-10T13:41:14.103Z,99966.75
2019-03-10T13:43:44.361Z,99971.03
2019-03-10T13:46:14.701Z,99970.56
2019-03-10T13:48:45.031Z,99971.35
2019-03-10T13:51:15.288Z,99965.68
2019-03-10T13:53:45.511Z,99979.92
2019-03-10T13:56:15.680Z,99991.13
2019-03-10T13:58:45.887Z,100010.09
2019-03-10T14:01:16.178Z,100017.83
2019-03-10T14:03:46.411Z,100027.75
2019-03-10T14:06:16.658Z,100035.94
2019-03-10T14:08:46.815Z,100045.85
2019-03-10T14:11:17.119Z,100050.09
2019-03-10T14:13:47.272Z,100050.05
2019-03-10T14:16:17.621Z,100066.50
2019-03-10T14:18:47.822Z,100063.86
2019-03-10T14:21:18.084Z,100071.16
2019-03-10T14:23:48.298Z,100076.28
2019-03-10T14:26:18.623Z,100081.42
2019-03-10T14:28:48.952Z,100073.59
2019-03-10T14:31:19.225Z,100082.14
2019-03-10T14:33:49.558Z,100091.48
2019-03-10T14:36:20.089Z,100087.94
2019-03-10T14:38:50.446Z,100098.32
2019-03-10T14:41:20.693Z,100111.77
2019-03-10T14:43:50.976Z,100120.41
2019-03-10T14:46:21.100Z,100132.47
2019-03-10T14:48:51.297Z,100151.44
2019-03-10T14:51:29.320Z,100161.69
2019-03-10T14:54:02.617Z,100173.22
2019-03-10T14:56:32.902Z,100187.71
2019-03-10T14:59:02.994Z,100202.19
2019-03-10T15:01:33.285Z,100210.95
2019-03-10T15:04:05.059Z,100223.92
2019-03-10T15:06:35.218Z,100226.13
2019-03-10T15:09:07.239Z,100239.62
2019-03-10T15:11:37.383Z,100241.02
2019-03-10T15:14:07.627Z,100255.55
2019-03-10T15:16:37.869Z,100265.27
2019-03-10T15:19:08.184Z,100275.14
2019-03-10T15:21:38.428Z,100288.69
2019-03-10T15:24:08.575Z,100293.55
2019-03-10T15:26:45.510Z,100306.27
2019-03-10T15:29:10.654Z,100312.58
2019-03-10T15:31:40.789Z,100330.94
2019-03-10T15:34:10.964Z,100340.20
2019-03-10T15:36:41.605Z,100347.42
2019-03-10T15:39:12.020Z,100349.08
2019-03-10T15:41:42.248Z,100354.85
2019-03-10T15:44:12.428Z,100370.39
2019-03-10T15:49:14.036Z,100381.08
2019-03-10T15:51:44.782Z,100398.81
2019-03-10T15:54:14.954Z,100401.96
2019-03-10T15:56:45.177Z,100407.25
2019-03-10T15:59:15.391Z,100422.03
2019-03-10T16:01:48.540Z,100427.75
2019-03-10T16:04:23.474Z,100435.58
2019-03-10T16:06:53.618Z,100448.58
2019-03-10T16:09:23.847Z,100461.19
2019-03-10T16:11:54.092Z,100467.31
2019-03-10T16:14:24.387Z,100483.83
2019-03-10T16:16:54.450Z,100493.44
2019-03-10T16:19:24.505Z,100504.83
2019-03-10T16:21:54.702Z,100525.17
2019-03-10T16:24:24.913Z,100530.04
2019-03-10T16:26:58.476Z,100538.78
2019-03-10T16:29:28.698Z,100548.29
2019-03-10T16:31:58.907Z,100554.39
2019-03-10T16:34:29.032Z,100558.77
2019-03-10T16:36:59.281Z,100562.28
2019-03-10T16:39:29.471Z,100577.55
2019-03-10T16:41:59.645Z,100587.05
2019-03-10T16:44:53.296Z,100574.95
2019-03-10T16:47:30.663Z,100586.56
2019-03-10T16:50:09.528Z,100594.76
2019-03-10T16:52:47.025Z,100590.88
2019-03-10T16:55:25.399Z,100605.94
2019-03-10T16:58:07.334Z,100605.49
2019-03-10T17:00:45.606Z,100612.47
2019-03-10T17:03:26.124Z,100623.80
2019-03-10T17:06:03.795Z,100628.58
2019-03-10T17:08:41.316Z,100639.86
2019-03-10T17:11:19.006Z,100656.38
2019-03-10T17:13:55.522Z,100672.48
2019-03-10T17:16:33.765Z,100664.34
2019-03-10T17:19:10.874Z,100675.75
2019-03-10T17:21:47.955Z,100657.61
2019-03-10T17:24:24.455Z,100663.89
2019-03-10T17:27:01.445Z,100669.57
2019-03-10T17:29:37.954Z,100677.89
2019-03-10T17:32:15.249Z,100675.37
2019-03-10T17:34:54.446Z,100667.97
2019-03-10T17:37:30.859Z,100687.14
2019-03-10T17:40:08.791Z,100682.77
2019-03-10T17:42:45.780Z,100693.73
2019-03-10T17:45:26.739Z,100701.41
2019-03-10T17:48:05.349Z,100707.14
2019-03-10T17:50:42.970Z,100714.12
2019-03-10T17:53:23.697Z,100724.97
2019-03-10T17:55:59.692Z,100722.81
2019-03-10T17:58:36.515Z,100731.52
2019-03-10T18:01:13.272Z,100732.44
2019-03-10T18:03:50.557Z,100736.77
2019-03-10T18:06:30.256Z,100746.77
2019-03-10T18:09:09.091Z,100748.55
2019-03-10T18:11:45.450Z,100756.34
2019-03-10T18:14:23.096Z,100761.88
2019-03-10T18:17:01.716Z,100769.48
2019-03-10T18:19:38.685Z,100781.33
2019-03-10T18:22:16.560Z,100773.05
2019-03-10T18:24:53.970Z,100791.64
2019-03-10T18:27:31.830Z,100786.94
2019-03-10T18:30:09.476Z,100788.80
2019-03-10T18:32:47.904Z,100799.78
2019-03-10T18:35:24.424Z,100808.88
2019-03-10T18:38:02.153Z,100815.48
2019-03-10T18:40:38.743Z,100815.98
2019-03-10T18:43:15.045Z,100829.86
2019-03-10T18:45:53.988Z,100826.41
2019-03-10T18:48:30.306Z,100835.12
2019-03-10T18:51:06.230Z,100845.05
2019-03-10T18:53:42.945Z,100848.45
2019-03-10T18:56:17.819Z,100851.84
2019-03-10T18:58:57.145Z,100859.63
2019-03-10T19:01:34.511Z,100863.94
2019-03-10T19:04:10.548Z,100864.76
2019-03-10T19:06:54.754Z,100877.64
2019-03-10T19:09:29.611Z,100873.27
2019-03-10T19:12:05.310Z,100879.68
2019-03-10T19:14:35.396Z,100886.03
2019-03-10T19:17:06.626Z,100888.55
2019-03-10T19:19:36.840Z,100884.97
2019-03-10T19:22:07.325Z,100891.73
2019-03-10T19:24:37.947Z,100895.06
2019-03-10T19:27:08.431Z,100883.19
2019-03-10T19:29:39.226Z,100893.07
2019-03-10T19:32:13.795Z,100895.58
2019-03-10T19:34:46.689Z,100914.39
2019-03-10T19:37:17.872Z,100919.04
2019-03-10T19:39:48.488Z,100909.14
2019-03-10T19:42:19.131Z,100910.99
2019-03-10T19:44:49.681Z,100916.11
2019-03-10T19:47:20.385Z,100913.73
2019-03-10T19:49:50.792Z,100919.49
2019-03-10T19:52:21.465Z,100930.12
2019-03-10T19:54:52.582Z,100932.20
2019-03-10T19:57:22.925Z,100937.67
2019-03-10T19:59:53.903Z,100932.97
2019-03-10T20:02:24.401Z,100927.55
2019-03-10T20:04:54.888Z,100931.30
2019-03-10T20:07:25.243Z,100930.33
2019-03-10T20:09:55.785Z,100919.70
2019-03-10T20:12:26.288Z,100915.81
2019-03-10T20:14:56.807Z,100908.53
2019-03-10T20:17:27.351Z,100912.99
2019-03-10T20:19:57.788Z,100910.44
2019-03-10T20:22:28.407Z,100905.75
2019-03-10T20:24:59.008Z,100896.20
2019-03-10T20:27:29.628Z,100903.25
2019-03-10T20:30:00.352Z,100915.89
2019-03-10T20:32:30.712Z,100934.46
2019-03-10T20:35:01.170Z,100942.13
2019-03-10T20:37:31.675Z,100932.08
2019-03-10T20:40:02.185Z,100927.23
2019-03-10T20:42:32.756Z,100929.06
2019-03-10T20:45:03.240Z,100923.02
2019-03-10T20:47:34.078Z,100929.06
2019-03-10T20:50:04.974Z,100923.80
2019-03-10T20:52:35.787Z,100926.96
2019-03-10T20:55:06.339Z,100924.44
2019-03-10T20:57:36.951Z,100918.36
2019-03-10T21:00:20.161Z,100924.95
2019-03-10T21:02:47.125Z,100907.77
2019-03-10T21:05:18.462Z,100898.23
2019-03-10T21:07:49.311Z,100905.19
2019-03-10T21:10:20.077Z,100902.23
2019-03-10T21:12:50.656Z,100900.55
2019-03-10T21:15:21.221Z,100903.71
2019-03-10T21:17:52.258Z,100895.14
2019-03-10T21:20:26.520Z,100888.39
2019-03-10T21:22:57.006Z,100879.34
2019-03-10T21:25:29.016Z,100884.72
2019-03-10T21:27:59.850Z,100894.74
2019-03-10T21:30:30.641Z,100889.62
2019-03-10T21:33:01.183Z,100898.90
2019-03-10T21:35:33.284Z,100898.56
2019-03-10T21:38:04.190Z,100905.67
2019-03-10T21:40:34.928Z,100898.34
2019-03-10T21:43:06.128Z,100893.65
2019-03-10T21:45:36.847Z,100893.29
2019-03-10T21:48:07.493Z,100885.13
2019-03-10T21:50:38.224Z,100886.67
2019-03-10T21:53:09.038Z,100883.89
2019-03-10T21:55:39.563Z,100903.58
2019-03-10T21:58:10.111Z,100902.42
2019-03-10T22:00:40.486Z,100924.59
2019-03-10T22:03:11.036Z,100922.08
2019-03-10T22:05:41.696Z,100924.67
2019-03-10T22:08:12.187Z,100911.69
2019-03-10T22:10:43.027Z,100919.97
2019-03-10T22:13:13.506Z,100910.40
2019-03-10T22:15:44.153Z,100916.09
2019-03-10T22:18:14.833Z,100928.11
2019-03-10T22:20:45.361Z,100915.16
2019-03-10T22:23:21.898Z,100920.28
2019-03-10T22:25:52.438Z,100919.21
2019-03-10T22:28:22.904Z,100943.74
2019-03-10T22:30:53.330Z,100928.56
2019-03-10T22:33:23.795Z,100934.19
2019-03-10T22:35:54.489Z,100913.02
2019-03-10T22:38:25.104Z,100915.40
2019-03-10T22:40:55.303Z,100906.25
2019-03-10T22:43:25.523Z,100926.49
2019-03-10T22:45:55.670Z,100941.14
2019-03-10T22:48:25.976Z,100942.01
2019-03-10T22:50:56.103Z,100943.33
2019-03-10T22:53:26.244Z,100950.74
2019-03-10T22:55:56.421Z,100962.88
2019-03-10T22:58:26.628Z,100967.13
2019-03-10T23:00:58.293Z,100952.10
2019-03-10T23:03:28.649Z,100966.53
2019-03-10T23:05:58.871Z,100950.42
2019-03-10T23:08:29.031Z,100957.77
2019-03-10T23:10:59.302Z,100961.72
2019-03-10T23:13:29.433Z,100976.02
2019-03-10T23:15:59.618Z,100949.73
2019-03-10T23:18:29.741Z,100941.59
2019-03-10T23:20:59.887Z,100945.98
2019-03-10T23:23:30.025Z,100921.38
2019-03-10T23:26:00.231Z,100926.11
2019-03-10T23:28:30.480Z,100927.32
2019-03-10T23:31:00.716Z,100927.32
2019-03-10T23:33:31.045Z,100917.77
2019-03-10T23:36:01.339Z,100913.44
2019-03-10T23:38:31.659Z,100907.33
2019-03-10T23:41:01.874Z,100915.88
2019-03-10T23:43:31.955Z,100911.48
2019-03-10T23:46:02.727Z,100909.70
2019-03-10T23:48:32.954Z,100922.20
2019-03-10T23:51:03.189Z,100915.73
2019-03-10T23:53:33.360Z,100911.84
2019-03-10T23:56:03.625Z,100908.98
2019-03-10T23:58:33.878Z,100905.19
